sensor_id;sensor_type;location;lat;lon;timestamp;temperature;humidity
69031;DHT22;56083;48.774;8.942;2022-11-20T04:54:00;4.10;99.90
69031;DHT22;56083;48.774;8.942;2022-11-20T04:56:26;3.90;99.90
69031;DHT22;56083;48.774;8.942;2022-11-20T05:01:21;4.10;99.90
69031;DHT22;56083;48.774;8.942;2022-11-20T05:03:48;4.30;99.90
69031;DHT22;56083;48.774;8.942;2022-11-20T05:06:15;4.10;99.90
69031;DHT22;56083;48.774;8.942;2022-11-20T05:08:41;4.00;99.90
69031;DHT22;56083;48.774;8.942;2022-11-20T05:11:10;4.10;99.90
69031;DHT22;56083;48.774;8.942;2022-11-20T05:13:36;4.20;99.90
69031;DHT22;56083;48.774;8.942;2022-11-20T05:16:07;4.40;99.90
69031;DHT22;56083;48.774;8.942;2022-11-20T05:18:35;4.20;99.90
69031;DHT22;56083;48.774;8.942;2022-11-20T05:21:00;4.30;99.90
69031;DHT22;56083;48.774;8.942;2022-11-20T05:23:27;4.40;99.90
69031;DHT22;56083;48.774;8.942;2022-11-20T05:25:54;4.30;99.90
69031;DHT22;56083;48.774;8.942;2022-11-20T05:28:20;4.40;99.90
69031;DHT22;56083;48.774;8.942;2022-11-20T05:30:46;4.50;99.90
69031;DHT22;56083;48.774;8.942;2022-11-20T05:33:11;4.60;99.90
69031;DHT22;56083;48.774;8.942;2022-11-20T05:35:37;4.40;99.90
69031;DHT22;56083;48.774;8.942;2022-11-20T05:38:02;4.70;99.90
69031;DHT22;56083;48.774;8.942;2022-11-20T05:40:28;4.50;99.90
69031;DHT22;56083;48.774;8.942;2022-11-20T05:42:54;4.70;99.90
69031;DHT22;56083;48.774;8.942;2022-11-20T05:45:19;4.50;99.90
69031;DHT22;56083;48.774;8.942;2022-11-20T05:47:45;4.80;99.90
69031;DHT22;56083;48.774;8.942;2022-11-20T05:50:11;4.70;99.90
69031;DHT22;56083;48.774;8.942;2022-11-20T05:52:36;4.70;99.90
69031;DHT22;56083;48.774;8.942;2022-11-20T05:55:02;4.60;99.90
69031;DHT22;56083;48.774;8.942;2022-11-20T05:57:28;4.60;99.90
69031;DHT22;56083;48.774;8.942;2022-11-20T05:59:53;4.60;99.90
69031;DHT22;56083;48.774;8.942;2022-11-20T06:02:19;4.70;99.90
69031;DHT22;56083;48.774;8.942;2022-11-20T06:04:44;5.00;99.90
69031;DHT22;56083;48.774;8.942;2022-11-20T06:07:10;4.90;99.90
69031;DHT22;56083;48.774;8.942;2022-11-20T06:09:36;4.90;99.90
69031;DHT22;56083;48.774;8.942;2022-11-20T06:12:01;5.00;99.90
69031;DHT22;56083;48.774;8.942;2022-11-20T06:14:27;5.00;99.90
69031;DHT22;56083;48.774;8.942;2022-11-20T06:16:53;5.00;99.90
69031;DHT22;56083;48.774;8.942;2022-11-20T06:19:18;5.20;99.90
69031;DHT22;56083;48.774;8.942;2022-11-20T06:21:44;5.10;99.90
69031;DHT22;56083;48.774;8.942;2022-11-20T06:24:10;5.10;99.90
69031;DHT22;56083;48.774;8.942;2022-11-20T06:26:36;5.20;99.90
69031;DHT22;56083;48.774;8.942;2022-11-20T06:29:01;5.30;99.90
69031;DHT22;56083;48.774;8.942;2022-11-20T06:31:27;5.10;99.90
69031;DHT22;56083;48.774;8.942;2022-11-20T06:33:54;5.20;99.90
69031;DHT22;56083;48.774;8.942;2022-11-20T06:38:47;5.20;99.90
69031;DHT22;56083;48.774;8.942;2022-11-20T06:43:42;5.10;99.90
69031;DHT22;56083;48.774;8.942;2022-11-20T06:46:10;5.20;99.90
69031;DHT22;56083;48.774;8.942;2022-11-20T06:51:04;5.30;99.90
69031;DHT22;56083;48.774;8.942;2022-11-20T06:53:30;5.40;99.90
69031;DHT22;56083;48.774;8.942;2022-11-20T06:58:25;5.40;99.90
69031;DHT22;56083;48.774;8.942;2022-11-20T07:00:51;5.50;99.90
69031;DHT22;56083;48.774;8.942;2022-11-20T07:03:17;5.30;99.90
69031;DHT22;56083;48.774;8.942;2022-11-20T07:05:42;5.50;99.90
69031;DHT22;56083;48.774;8.942;2022-11-20T07:08:09;5.40;99.90
69031;DHT22;56083;48.774;8.942;2022-11-20T07:10:35;5.40;99.90
69031;DHT22;56083;48.774;8.942;2022-11-20T07:13:00;5.40;99.90
69031;DHT22;56083;48.774;8.942;2022-11-20T07:15:26;5.40;99.90
69031;DHT22;56083;48.774;8.942;2022-11-20T07:17:52;5.50;99.90
69031;DHT22;56083;48.774;8.942;2022-11-20T07:20:18;5.30;99.90
69031;DHT22;56083;48.774;8.942;2022-11-20T07:22:44;5.00;99.90
69031;DHT22;56083;48.774;8.942;2022-11-20T07:25:10;5.20;99.90
69031;DHT22;56083;48.774;8.942;2022-11-20T07:27:36;5.30;99.90
69031;DHT22;56083;48.774;8.942;2022-11-20T07:30:03;5.60;99.90
69031;DHT22;56083;48.774;8.942;2022-11-20T07:32:29;5.30;99.90
69031;DHT22;56083;48.774;8.942;2022-11-20T07:34:54;5.40;99.90
69031;DHT22;56083;48.774;8.942;2022-11-20T07:37:20;5.70;99.90
69031;DHT22;56083;48.774;8.942;2022-11-20T07:39:45;6.00;99.90
69031;DHT22;56083;48.774;8.942;2022-11-20T07:42:11;6.30;99.90
69031;DHT22;56083;48.774;8.942;2022-11-20T07:44:39;6.70;99.90
69031;DHT22;56083;48.774;8.942;2022-11-20T07:47:05;7.00;99.90
69031;DHT22;56083;48.774;8.942;2022-11-20T07:49:31;7.00;99.90
69031;DHT22;56083;48.774;8.942;2022-11-20T07:51:56;6.80;99.90
69031;DHT22;56083;48.774;8.942;2022-11-20T07:54:22;6.70;99.90
69031;DHT22;56083;48.774;8.942;2022-11-20T07:56:48;6.50;99.90
69031;DHT22;56083;48.774;8.942;2022-11-20T07:59:14;6.40;99.90
69031;DHT22;56083;48.774;8.942;2022-11-20T08:01:41;6.30;99.90
69031;DHT22;56083;48.774;8.942;2022-11-20T08:04:07;6.20;99.90
69031;DHT22;56083;48.774;8.942;2022-11-20T08:06:32;6.00;99.90
69031;DHT22;56083;48.774;8.942;2022-11-20T08:08:58;6.10;99.90
69031;DHT22;56083;48.774;8.942;2022-11-20T08:11:24;6.00;99.90
69031;DHT22;56083;48.774;8.942;2022-11-20T08:14:08;6.00;99.90
69031;DHT22;56083;48.774;8.942;2022-11-20T08:16:45;6.10;99.90
69031;DHT22;56083;48.774;8.942;2022-11-20T08:19:12;6.10;99.90
69031;DHT22;56083;48.774;8.942;2022-11-20T08:21:39;6.20;99.90
69031;DHT22;56083;48.774;8.942;2022-11-20T08:24:06;6.10;99.90
69031;DHT22;56083;48.774;8.942;2022-11-20T08:26:33;6.40;99.90
69031;DHT22;56083;48.774;8.942;2022-11-20T08:28:59;6.50;99.90
69031;DHT22;56083;48.774;8.942;2022-11-20T08:31:26;6.50;99.90
69031;DHT22;56083;48.774;8.942;2022-11-20T08:33:52;6.60;99.90
69031;DHT22;56083;48.774;8.942;2022-11-20T08:36:21;6.40;99.90
69031;DHT22;56083;48.774;8.942;2022-11-20T08:38:52;6.60;99.90
69031;DHT22;56083;48.774;8.942;2022-11-20T08:41:19;6.70;99.90
69031;DHT22;56083;48.774;8.942;2022-11-20T08:43:59;6.80;99.90
69031;DHT22;56083;48.774;8.942;2022-11-20T08:46:27;6.70;99.90
69031;DHT22;56083;48.774;8.942;2022-11-20T08:48:53;6.80;99.90
69031;DHT22;56083;48.774;8.942;2022-11-20T08:51:20;6.80;99.90
69031;DHT22;56083;48.774;8.942;2022-11-20T08:53:46;6.80;99.90
69031;DHT22;56083;48.774;8.942;2022-11-20T08:56:14;6.70;99.90
69031;DHT22;56083;48.774;8.942;2022-11-20T08:58:40;6.50;99.90
69031;DHT22;56083;48.774;8.942;2022-11-20T09:01:07;6.40;99.90
69031;DHT22;56083;48.774;8.942;2022-11-20T09:03:33;6.40;99.90
69031;DHT22;56083;48.774;8.942;2022-11-20T09:06:03;6.40;99.90
69031;DHT22;56083;48.774;8.942;2022-11-20T09:08:29;6.40;99.90
69031;DHT22;56083;48.774;8.942;2022-11-20T09:10:56;6.30;99.90
69031;DHT22;56083;48.774;8.942;2022-11-20T09:13:24;6.30;99.90
69031;DHT22;56083;48.774;8.942;2022-11-20T09:16:02;6.30;99.90
69031;DHT22;56083;48.774;8.942;2022-11-20T09:18:28;6.10;99.90
69031;DHT22;56083;48.774;8.942;2022-11-20T09:21:00;6.00;99.90
69031;DHT22;56083;48.774;8.942;2022-11-20T09:23:27;6.00;99.90
69031;DHT22;56083;48.774;8.942;2022-11-20T09:25:53;6.00;99.90
69031;DHT22;56083;48.774;8.942;2022-11-20T09:28:20;5.90;99.90
69031;DHT22;56083;48.774;8.942;2022-11-20T09:35:43;5.80;99.90
69031;DHT22;56083;48.774;8.942;2022-11-20T09:48:42;5.80;99.90
69031;DHT22;56083;48.774;8.942;2022-11-20T09:54:06;5.80;99.90
69031;DHT22;56083;48.774;8.942;2022-11-20T09:56:42;5.80;99.90
69031;DHT22;56083;48.774;8.942;2022-11-20T10:32:50;5.40;99.90
69031;DHT22;56083;48.774;8.942;2022-11-20T11:06:38;5.70;99.90
69031;DHT22;56083;48.774;8.942;2022-11-20T11:39:32;12.90;99.90
69031;DHT22;56083;48.774;8.942;2022-11-20T11:42:00;12.60;99.90
69031;DHT22;56083;48.774;8.942;2022-11-20T11:44:33;11.90;99.90
69031;DHT22;56083;48.774;8.942;2022-11-20T11:47:25;11.20;99.90
69031;DHT22;56083;48.774;8.942;2022-11-20T11:50:24;11.70;99.90
69031;DHT22;56083;48.774;8.942;2022-11-20T12:11:49;11.90;99.90
69031;DHT22;56083;48.774;8.942;2022-11-20T12:16:52;13.70;99.90
69031;DHT22;56083;48.774;8.942;2022-11-20T12:19:18;13.90;99.90
69031;DHT22;56083;48.774;8.942;2022-11-20T12:51:44;14.00;99.90
69031;DHT22;56083;48.774;8.942;2022-11-20T13:07:52;8.90;99.90
69031;DHT22;56083;48.774;8.942;2022-11-20T13:10:31;8.60;99.90
69031;DHT22;56083;48.774;8.942;2022-11-20T13:16:26;10.70;99.90
69031;DHT22;56083;48.774;8.942;2022-11-20T13:18:54;10.40;99.90
69031;DHT22;56083;48.774;8.942;2022-11-20T13:21:34;10.40;99.90
69031;DHT22;56083;48.774;8.942;2022-11-20T13:24:20;10.80;99.90
69031;DHT22;56083;48.774;8.942;2022-11-20T13:29:29;9.70;99.90
69031;DHT22;56083;48.774;8.942;2022-11-20T13:32:11;8.80;99.90
69031;DHT22;56083;48.774;8.942;2022-11-20T13:34:39;8.70;99.90
69031;DHT22;56083;48.774;8.942;2022-11-20T13:37:32;8.30;99.90
69031;DHT22;56083;48.774;8.942;2022-11-20T13:42:37;7.70;99.90
69031;DHT22;56083;48.774;8.942;2022-11-20T13:45:31;7.30;99.90
69031;DHT22;56083;48.774;8.942;2022-11-20T13:47:59;7.10;99.90
69031;DHT22;56083;48.774;8.942;2022-11-20T13:56:10;7.60;99.90
69031;DHT22;56083;48.774;8.942;2022-11-20T14:01:34;9.80;99.90
69031;DHT22;56083;48.774;8.942;2022-11-20T14:04:07;10.50;99.90
69031;DHT22;56083;48.774;8.942;2022-11-20T14:06:45;10.70;99.90
69031;DHT22;56083;48.774;8.942;2022-11-20T14:09:29;10.90;99.90
69031;DHT22;56083;48.774;8.942;2022-11-20T14:11:55;10.40;99.90
69031;DHT22;56083;48.774;8.942;2022-11-20T14:14:26;9.90;99.90
69031;DHT22;56083;48.774;8.942;2022-11-20T14:17:03;9.60;99.90
69031;DHT22;56083;48.774;8.942;2022-11-20T14:19:29;9.20;99.90
69031;DHT22;56083;48.774;8.942;2022-11-20T14:22:20;8.80;99.90
69031;DHT22;56083;48.774;8.942;2022-11-20T14:25:32;8.60;99.90
69031;DHT22;56083;48.774;8.942;2022-11-20T14:27:35;8.30;99.90
69031;DHT22;56083;48.774;8.942;2022-11-20T14:30:02;8.10;99.90
69031;DHT22;56083;48.774;8.942;2022-11-20T14:32:29;8.00;99.90
69031;DHT22;56083;48.774;8.942;2022-11-20T14:35:01;7.80;99.90
69031;DHT22;56083;48.774;8.942;2022-11-20T14:37:33;7.60;99.90
69031;DHT22;56083;48.774;8.942;2022-11-20T14:39:59;7.50;99.90
69031;DHT22;56083;48.774;8.942;2022-11-20T14:42:27;7.40;99.90
69031;DHT22;56083;48.774;8.942;2022-11-20T14:44:58;7.40;99.90
69031;DHT22;56083;48.774;8.942;2022-11-20T14:47:30;7.40;99.90
69031;DHT22;56083;48.774;8.942;2022-11-20T14:49:57;7.40;99.90
69031;DHT22;56083;48.774;8.942;2022-11-20T14:52:26;7.30;99.90
69031;DHT22;56083;48.774;8.942;2022-11-20T14:54:53;7.30;99.90
69031;DHT22;56083;48.774;8.942;2022-11-20T14:57:28;7.20;99.90
69031;DHT22;56083;48.774;8.942;2022-11-20T15:00:24;7.10;99.90
69031;DHT22;56083;48.774;8.942;2022-11-20T15:02:51;7.00;99.90
69031;DHT22;56083;48.774;8.942;2022-11-20T15:05:19;7.00;99.90
69031;DHT22;56083;48.774;8.942;2022-11-20T15:07:48;6.90;99.90
69031;DHT22;56083;48.774;8.942;2022-11-20T15:10:27;6.80;99.90
69031;DHT22;56083;48.774;8.942;2022-11-20T15:12:54;6.70;99.90
69031;DHT22;56083;48.774;8.942;2022-11-20T15:15:47;6.60;99.90
69031;DHT22;56083;48.774;8.942;2022-11-20T15:18:16;6.40;99.90
69031;DHT22;56083;48.774;8.942;2022-11-20T15:20:43;6.40;99.90
69031;DHT22;56083;48.774;8.942;2022-11-20T15:23:14;6.40;99.90
69031;DHT22;56083;48.774;8.942;2022-11-20T15:25:40;6.40;99.90
69031;DHT22;56083;48.774;8.942;2022-11-20T15:28:20;6.20;99.90
69031;DHT22;56083;48.774;8.942;2022-11-20T15:30:47;6.30;99.90
69031;DHT22;56083;48.774;8.942;2022-11-20T15:33:14;6.20;99.90
69031;DHT22;56083;48.774;8.942;2022-11-20T15:35:40;6.30;99.90
69031;DHT22;56083;48.774;8.942;2022-11-20T15:38:05;6.10;99.90
69031;DHT22;56083;48.774;8.942;2022-11-20T15:40:31;6.10;99.90
69031;DHT22;56083;48.774;8.942;2022-11-20T15:42:57;6.00;99.90
69031;DHT22;56083;48.774;8.942;2022-11-20T15:45:37;6.10;99.90
69031;DHT22;56083;48.774;8.942;2022-11-20T15:48:04;6.00;99.90
69031;DHT22;56083;48.774;8.942;2022-11-20T15:53:16;5.90;99.90
69031;DHT22;56083;48.774;8.942;2022-11-20T15:55:41;5.90;99.90
69031;DHT22;56083;48.774;8.942;2022-11-20T15:58:07;5.90;99.90
69031;DHT22;56083;48.774;8.942;2022-11-20T16:00:32;5.80;99.90
69031;DHT22;56083;48.774;8.942;2022-11-20T16:02:58;5.70;99.90
69031;DHT22;56083;48.774;8.942;2022-11-20T16:05:27;5.80;99.90
69031;DHT22;56083;48.774;8.942;2022-11-20T16:07:52;5.80;99.90
69031;DHT22;56083;48.774;8.942;2022-11-20T16:10:18;5.60;99.90
69031;DHT22;56083;48.774;8.942;2022-11-20T16:15:29;5.50;99.90
69031;DHT22;56083;48.774;8.942;2022-11-20T16:25:33;5.50;99.90
69031;DHT22;56083;48.774;8.942;2022-11-20T16:27:59;5.80;99.90
69031;DHT22;56083;48.774;8.942;2022-11-20T16:30:24;5.60;99.90
69031;DHT22;56083;48.774;8.942;2022-11-20T16:32:50;5.60;99.90
69031;DHT22;56083;48.774;8.942;2022-11-20T16:35:16;5.50;99.90
69031;DHT22;56083;48.774;8.942;2022-11-20T16:37:42;5.60;99.90
69031;DHT22;56083;48.774;8.942;2022-11-20T16:40:09;5.70;99.90
69031;DHT22;56083;48.774;8.942;2022-11-20T16:42:36;5.70;99.90
69031;DHT22;56083;48.774;8.942;2022-11-20T16:45:02;5.60;99.90
69031;DHT22;56083;48.774;8.942;2022-11-20T16:47:32;5.60;99.90
69031;DHT22;56083;48.774;8.942;2022-11-20T16:54:49;5.40;99.90
69031;DHT22;56083;48.774;8.942;2022-11-20T16:57:15;5.50;99.90
69031;DHT22;56083;48.774;8.942;2022-11-20T17:02:08;5.40;99.90
69031;DHT22;56083;48.774;8.942;2022-11-20T17:04:35;5.50;99.90
69031;DHT22;56083;48.774;8.942;2022-11-20T17:07:01;5.50;99.90
69031;DHT22;56083;48.774;8.942;2022-11-20T17:11:53;5.50;99.90
69031;DHT22;56083;48.774;8.942;2022-11-20T17:14:19;5.70;99.90
69031;DHT22;56083;48.774;8.942;2022-11-20T17:19:12;5.50;99.90
69031;DHT22;56083;48.774;8.942;2022-11-20T17:21:38;5.70;99.90
69031;DHT22;56083;48.774;8.942;2022-11-20T17:24:06;5.70;99.90
69031;DHT22;56083;48.774;8.942;2022-11-20T17:26:33;5.70;99.90
69031;DHT22;56083;48.774;8.942;2022-11-20T17:29:07;5.90;99.90
69031;DHT22;56083;48.774;8.942;2022-11-20T17:34:07;5.70;99.90
69031;DHT22;56083;48.774;8.942;2022-11-20T17:36:33;6.00;99.90
69031;DHT22;56083;48.774;8.942;2022-11-20T18:18:59;5.80;99.90
69031;DHT22;56083;48.774;8.942;2022-11-20T18:21:26;5.80;99.90
69031;DHT22;56083;48.774;8.942;2022-11-20T18:59:04;5.00;99.90
69031;DHT22;56083;48.774;8.942;2022-11-20T19:01:29;5.10;99.90
69031;DHT22;56083;48.774;8.942;2022-11-20T19:13:40;5.00;99.90
69031;DHT22;56083;48.774;8.942;2022-11-20T19:16:18;4.90;99.90
69031;DHT22;56083;48.774;8.942;2022-11-20T19:26:15;4.60;99.90
69031;DHT22;56083;48.774;8.942;2022-11-20T19:33:39;4.60;99.90
69031;DHT22;56083;48.774;8.942;2022-11-20T19:38:51;4.60;99.90
69031;DHT22;56083;48.774;8.942;2022-11-20T19:43:45;4.50;99.90
69031;DHT22;56083;48.774;8.942;2022-11-20T19:51:18;4.50;99.90
69031;DHT22;56083;48.774;8.942;2022-11-20T20:06:07;4.50;99.90
69031;DHT22;56083;48.774;8.942;2022-11-20T20:08:33;4.60;99.90
69031;DHT22;56083;48.774;8.942;2022-11-20T20:15:52;4.40;99.90
69031;DHT22;56083;48.774;8.942;2022-11-20T20:18:18;4.60;99.90
69031;DHT22;56083;48.774;8.942;2022-11-20T20:42:43;4.30;99.90
69031;DHT22;56083;48.774;8.942;2022-11-20T20:52:34;4.30;99.90
69031;DHT22;56083;48.774;8.942;2022-11-20T20:54:59;4.50;99.90
69031;DHT22;56083;48.774;8.942;2022-11-20T20:57:25;4.40;99.90
69031;DHT22;56083;48.774;8.942;2022-11-20T20:59:53;4.50;99.90
69031;DHT22;56083;48.774;8.942;2022-11-20T21:07:12;4.20;99.90
69031;DHT22;56083;48.774;8.942;2022-11-20T21:14:30;4.20;99.90
69031;DHT22;56083;48.774;8.942;2022-11-20T21:19:22;4.30;99.90
69031;DHT22;56083;48.774;8.942;2022-11-20T21:26:49;4.20;99.90
69031;DHT22;56083;48.774;8.942;2022-11-20T21:36:37;4.40;99.90
69031;DHT22;56083;48.774;8.942;2022-11-20T21:39:03;4.50;99.90
69031;DHT22;56083;48.774;8.942;2022-11-20T21:41:29;4.40;99.90
69031;DHT22;56083;48.774;8.942;2022-11-20T21:51:20;4.10;99.90
69031;DHT22;56083;48.774;8.942;2022-11-20T22:01:13;4.10;99.90
69031;DHT22;56083;48.774;8.942;2022-11-20T22:03:39;4.10;99.90
69031;DHT22;56083;48.774;8.942;2022-11-20T22:06:06;4.20;99.90
69031;DHT22;56083;48.774;8.942;2022-11-20T22:18:53;4.00;99.90
69031;DHT22;56083;48.774;8.942;2022-11-20T22:21:21;4.10;99.90
69031;DHT22;56083;48.774;8.942;2022-11-20T22:36:10;4.30;99.90
69031;DHT22;56083;48.774;8.942;2022-11-20T22:41:16;4.20;99.90
69031;DHT22;56083;48.774;8.942;2022-11-20T22:43:43;4.40;99.90
69031;DHT22;56083;48.774;8.942;2022-11-20T22:58:30;4.20;99.90
69031;DHT22;56083;48.774;8.942;2022-11-20T23:01:12;4.30;99.90
69031;DHT22;56083;48.774;8.942;2022-11-20T23:06:05;4.30;99.90
69031;DHT22;56083;48.774;8.942;2022-11-20T23:08:32;4.50;99.90
69031;DHT22;56083;48.774;8.942;2022-11-20T23:15:51;4.40;99.90
69031;DHT22;56083;48.774;8.942;2022-11-20T23:18:17;4.50;99.90
69031;DHT22;56083;48.774;8.942;2022-11-20T23:25:35;4.40;99.90
69031;DHT22;56083;48.774;8.942;2022-11-20T23:28:00;4.50;99.90
69031;DHT22;56083;48.774;8.942;2022-11-20T23:30:26;4.50;99.90
69031;DHT22;56083;48.774;8.942;2022-11-20T23:32:51;4.60;99.90
69031;DHT22;56083;48.774;8.942;2022-11-20T23:35:17;4.60;99.90
69031;DHT22;56083;48.774;8.942;2022-11-20T23:37:43;4.50;99.90
69031;DHT22;56083;48.774;8.942;2022-11-20T23:40:09;4.60;99.90
69031;DHT22;56083;48.774;8.942;2022-11-20T23:42:34;4.60;99.90
69031;DHT22;56083;48.774;8.942;2022-11-20T23:45:00;4.30;99.90
69031;DHT22;56083;48.774;8.942;2022-11-20T23:47:25;4.60;99.90
69031;DHT22;56083;48.774;8.942;2022-11-20T23:49:51;4.40;99.90
69031;DHT22;56083;48.774;8.942;2022-11-20T23:52:17;4.40;99.90
69031;DHT22;56083;48.774;8.942;2022-11-20T23:54:42;4.40;99.90
69031;DHT22;56083;48.774;8.942;2022-11-20T23:57:08;4.40;99.90
69031;DHT22;56083;48.774;8.942;2022-11-20T23:59:33;4.30;99.90
